Time;durP1;ratioP1;P1;durP2;ratioP2;P2;SDS_P1;SDS_P2;PMS_P1;PMS_P2;Temp;Humidity;BMP_temperature;BMP_pressure;BME280_temperature;BME280_humidity;BME280_pressure;Samples;Min_cycle;Max_cycle;Signal;HPM_P1;HPM_P2
2023/10/26 00:00:01;;;;;;;;;;;10.90;99.90;;;;;;7319752;19;10904;-80
2023/10/26 00:02:30;;;;;;;;;;;10.90;99.90;;;;;;7319692;19;9233;-80
2023/10/26 00:05:02;;;;;;;;;;;10.90;99.90;;;;;;7317142;19;11454;-80
2023/10/26 00:07:31;;;;;;;;;;;10.90;99.90;;;;;;7317306;19;9226;-80
2023/10/26 00:10:00;;;;;;;;;;;10.80;99.90;;;;;;7319048;19;9402;-80
2023/10/26 00:12:29;;;;;;;;;;;10.80;99.90;;;;;;7318168;19;9264;-80
2023/10/26 00:14:58;;;;;;;;;;;10.90;99.90;;;;;;7317358;19;9271;-81
2023/10/26 00:17:27;;;;;;;;;;;10.80;99.90;;;;;;7318152;19;9312;-80
2023/10/26 00:19:56;;;;;;;;;;;10.90;99.90;;;;;;7320553;19;10348;-80
2023/10/26 00:22:28;;;;;;;;;;;10.80;99.90;;;;;;7318325;19;9285;-80
2023/10/26 00:24:57;;;;;;;;;;;10.80;99.90;;;;;;7317449;19;9238;-80
2023/10/26 00:27:25;;;;;;;;;;;10.80;99.90;;;;;;7319274;19;9120;-80
2023/10/26 00:29:54;;;;;;;;;;;10.90;99.90;;;;;;7319730;19;9381;-80
2023/10/26 00:32:23;;;;;;;;;;;10.80;99.90;;;;;;7320518;19;9184;-81
2023/10/26 00:34:52;;;;;;;;;;;10.80;99.90;;;;;;7325738;19;9271;-80
2023/10/26 00:37:21;;;;;;;;;;;10.90;99.90;;;;;;7319066;19;9491;-80
2023/10/26 00:39:53;;;;;;;;;;;10.90;99.90;;;;;;7319338;19;10389;-80
2023/10/26 00:42:22;;;;;;;;;;;11.00;99.90;;;;;;7317858;19;9226;-80
2023/10/26 00:44:51;;;;;;;;;;;11.00;99.90;;;;;;7318933;19;9201;-80
2023/10/26 00:47:20;;;;;;;;;;;11.00;99.90;;;;;;7317307;19;9119;-80
2023/10/26 00:49:49;;;;;;;;;;;11.00;99.90;;;;;;7316454;19;9465;-80
2023/10/26 00:52:19;;;;;;;;;;;10.90;99.90;;;;;;7318707;19;9250;-80
2023/10/26 00:54:48;;;;;;;;;;;11.00;99.90;;;;;;7315911;19;9477;-80
2023/10/26 00:57:24;;;;;;;;;;;11.00;99.90;;;;;;7316978;19;9319;-80
2023/10/26 00:59:55;;;;;;;;;;;11.00;99.90;;;;;;7319753;19;9456;-81
2023/10/26 01:02:25;;;;;;;;;;;11.00;99.90;;;;;;7316643;19;9360;-80
2023/10/26 01:04:54;;;;;;;;;;;11.00;99.90;;;;;;7313135;19;9265;-80
2023/10/26 01:07:23;;;;;;;;;;;11.00;99.90;;;;;;7315980;19;9613;-81
2023/10/26 01:09:52;;;;;;;;;;;11.10;99.90;;;;;;7318266;19;9631;-80
2023/10/26 01:12:24;;;;;;;;;;;11.00;99.90;;;;;;7316440;19;9427;-80
2023/10/26 01:14:54;;;;;;;;;;;11.00;99.90;;;;;;7315800;19;10380;-81
2023/10/26 01:17:23;;;;;;;;;;;11.10;99.90;;;;;;7318358;19;9165;-81
2023/10/26 01:19:52;;;;;;;;;;;11.00;99.90;;;;;;7318069;19;9265;-80
2023/10/26 01:22:30;;;;;;;;;;;11.00;99.90;;;;;;7315832;19;9245;-80
2023/10/26 01:25:00;;;;;;;;;;;11.00;99.90;;;;;;7317108;19;9473;-80
2023/10/26 01:27:29;;;;;;;;;;;10.90;99.90;;;;;;7317264;19;9467;-80
2023/10/26 01:29:58;;;;;;;;;;;11.00;99.90;;;;;;7316539;19;9478;-80
2023/10/26 01:32:29;;;;;;;;;;;11.00;99.90;;;;;;7315678;19;9485;-81
2023/10/26 01:34:58;;;;;;;;;;;11.00;99.90;;;;;;7317552;19;9238;-80
2023/10/26 01:37:29;;;;;;;;;;;10.80;99.90;;;;;;7315862;19;9109;-80
2023/10/26 01:39:58;;;;;;;;;;;10.90;99.90;;;;;;7316635;19;9304;-80
2023/10/26 01:42:27;;;;;;;;;;;11.00;99.90;;;;;;7316553;19;9468;-80
2023/10/26 01:44:56;;;;;;;;;;;10.90;99.90;;;;;;7316228;19;9206;-80
2023/10/26 01:47:25;;;;;;;;;;;10.90;99.90;;;;;;7315135;19;11302;-80
2023/10/26 01:49:54;;;;;;;;;;;10.90;99.90;;;;;;7313412;19;10734;-80
2023/10/26 01:52:23;;;;;;;;;;;10.80;99.90;;;;;;7315310;19;9277;-80
2023/10/26 01:54:55;;;;;;;;;;;10.80;99.90;;;;;;7317933;19;9182;-80
2023/10/26 01:57:24;;;;;;;;;;;10.80;99.90;;;;;;7317508;19;9238;-81
2023/10/26 01:59:55;;;;;;;;;;;10.80;99.90;;;;;;7316815;19;9201;-80
2023/10/26 02:02:24;;;;;;;;;;;10.80;99.90;;;;;;7313136;19;9513;-81
2023/10/26 02:04:54;;;;;;;;;;;10.70;99.90;;;;;;7314760;19;9442;-80
2023/10/26 02:07:23;;;;;;;;;;;10.70;99.90;;;;;;7317079;19;9509;-80
2023/10/26 02:09:55;;;;;;;;;;;10.80;99.90;;;;;;7316974;19;9168;-80
2023/10/26 02:12:24;;;;;;;;;;;10.80;99.90;;;;;;7315711;19;9499;-80
2023/10/26 02:14:53;;;;;;;;;;;10.70;99.90;;;;;;7314128;19;10337;-80
2023/10/26 02:17:21;;;;;;;;;;;10.70;99.90;;;;;;7312916;19;9501;-80
2023/10/26 02:19:50;;;;;;;;;;;10.70;99.90;;;;;;7314728;19;10391;-80
2023/10/26 02:22:19;;;;;;;;;;;10.70;99.90;;;;;;7314626;19;9298;-80
2023/10/26 02:24:48;;;;;;;;;;;10.60;99.90;;;;;;7316334;19;9147;-80
2023/10/26 02:27:20;;;;;;;;;;;10.70;99.90;;;;;;7314387;19;11165;-79
2023/10/26 02:29:48;;;;;;;;;;;10.80;99.90;;;;;;7312721;19;9489;-80
2023/10/26 02:32:17;;;;;;;;;;;10.80;99.90;;;;;;7314195;19;9378;-80
2023/10/26 02:34:46;;;;;;;;;;;10.80;99.90;;;;;;7316817;19;9250;-80
2023/10/26 02:37:15;;;;;;;;;;;10.80;99.90;;;;;;7315759;19;9274;-79
2023/10/26 02:39:44;;;;;;;;;;;10.80;99.90;;;;;;7315901;19;9480;-80
2023/10/26 02:42:13;;;;;;;;;;;10.80;99.90;;;;;;7314261;19;9353;-80
2023/10/26 02:44:44;;;;;;;;;;;10.70;99.90;;;;;;7311618;19;9354;-80
2023/10/26 02:47:13;;;;;;;;;;;10.70;99.90;;;;;;7312447;19;9475;-80
2023/10/26 02:49:42;;;;;;;;;;;10.80;99.90;;;;;;7315273;19;9329;-80
2023/10/26 02:52:12;;;;;;;;;;;10.90;99.90;;;;;;7317138;19;9267;-80
2023/10/26 02:54:41;;;;;;;;;;;10.80;99.90;;;;;;7314341;19;9309;-80
2023/10/26 02:57:10;;;;;;;;;;;10.80;99.90;;;;;;7313043;19;9537;-80
2023/10/26 02:59:39;;;;;;;;;;;10.80;99.90;;;;;;7310774;19;9829;-80
2023/10/26 03:02:11;;;;;;;;;;;10.70;99.90;;;;;;7319343;19;9204;-80
2023/10/26 03:04:41;;;;;;;;;;;10.60;99.90;;;;;;7320475;19;9238;-80
2023/10/26 03:07:12;;;;;;;;;;;10.50;99.90;;;;;;7319464;19;9704;-80
2023/10/26 03:09:41;;;;;;;;;;;10.50;99.90;;;;;;7318669;19;9596;-80
2023/10/26 03:12:11;;;;;;;;;;;10.40;99.90;;;;;;7321495;19;9169;-80
2023/10/26 03:14:39;;;;;;;;;;;10.40;99.90;;;;;;7321083;19;10370;-80
2023/10/26 03:17:15;;;;;;;;;;;10.50;99.90;;;;;;7320348;19;9214;-80
2023/10/26 03:19:44;;;;;;;;;;;10.50;99.90;;;;;;7320283;19;10158;-80
2023/10/26 03:22:13;;;;;;;;;;;10.60;99.90;;;;;;7321839;19;9234;-80
2023/10/26 03:24:42;;;;;;;;;;;10.60;99.90;;;;;;7322563;19;9280;-80
2023/10/26 03:27:11;;;;;;;;;;;10.70;99.90;;;;;;7318726;19;9283;-80
2023/10/26 03:29:40;;;;;;;;;;;10.70;99.90;;;;;;7320590;19;9182;-80
2023/10/26 03:32:12;;;;;;;;;;;10.60;99.90;;;;;;7320554;19;10503;-80
2023/10/26 03:34:41;;;;;;;;;;;10.50;99.90;;;;;;7321562;19;9250;-80
2023/10/26 03:37:10;;;;;;;;;;;10.50;99.90;;;;;;7319900;19;9247;-80
2023/10/26 03:39:38;;;;;;;;;;;10.50;99.90;;;;;;7317693;19;10268;-80
2023/10/26 03:42:08;;;;;;;;;;;10.50;99.90;;;;;;7319801;19;9491;-80
2023/10/26 03:44:37;;;;;;;;;;;10.50;99.90;;;;;;7319553;19;9386;-80
2023/10/26 03:47:06;;;;;;;;;;;10.50;99.90;;;;;;7316210;19;9116;-81
2023/10/26 03:49:37;;;;;;;;;;;10.60;99.90;;;;;;7317714;19;9233;-80
2023/10/26 03:52:07;;;;;;;;;;;10.50;99.90;;;;;;7319269;19;9260;-80
2023/10/26 03:54:37;;;;;;;;;;;10.60;99.90;;;;;;7320229;19;9634;-80
2023/10/26 03:57:07;;;;;;;;;;;10.60;99.90;;;;;;7319628;19;11278;-80
2023/10/26 03:59:36;;;;;;;;;;;10.60;99.90;;;;;;7318451;19;9459;-80
2023/10/26 04:02:05;;;;;;;;;;;10.70;99.90;;;;;;7318055;19;9173;-80
2023/10/26 04:04:37;;;;;;;;;;;10.60;99.90;;;;;;7319250;19;9273;-80
2023/10/26 04:07:07;;;;;;;;;;;10.60;99.90;;;;;;7319955;19;9245;-79
2023/10/26 04:09:36;;;;;;;;;;;10.70;99.90;;;;;;7318767;19;9185;-80
2023/10/26 04:12:06;;;;;;;;;;;10.60;99.90;;;;;;7319958;19;9158;-80
2023/10/26 04:14:36;;;;;;;;;;;10.70;99.90;;;;;;7316436;19;9386;-80
2023/10/26 04:17:05;;;;;;;;;;;10.60;99.90;;;;;;7319263;19;9484;-80
2023/10/26 04:19:37;;;;;;;;;;;10.60;99.90;;;;;;7319241;19;9204;-80
2023/10/26 04:22:06;;;;;;;;;;;10.60;99.90;;;;;;7317288;19;9328;-80
2023/10/26 04:24:35;;;;;;;;;;;10.50;99.90;;;;;;7314465;19;9408;-82
2023/10/26 04:27:05;;;;;;;;;;;10.50;99.90;;;;;;7314058;19;10748;-81
2023/10/26 04:29:33;;;;;;;;;;;10.50;99.90;;;;;;7319497;19;9163;-81
2023/10/26 04:32:02;;;;;;;;;;;10.60;99.90;;;;;;7320438;19;9131;-81
2023/10/26 04:34:31;;;;;;;;;;;10.60;99.90;;;;;;7318211;19;9288;-81
2023/10/26 04:37:03;;;;;;;;;;;10.50;99.90;;;;;;7318679;19;9513;-81
2023/10/26 04:39:32;;;;;;;;;;;10.50;99.90;;;;;;7317937;19;9467;-81
2023/10/26 04:42:01;;;;;;;;;;;10.50;99.90;;;;;;7320686;19;9136;-80
2023/10/26 04:44:32;;;;;;;;;;;10.50;99.90;;;;;;7313108;19;10325;-81
2023/10/26 04:47:01;;;;;;;;;;;10.50;99.90;;;;;;7317421;19;9372;-81
2023/10/26 04:49:30;;;;;;;;;;;10.40;99.90;;;;;;7316639;19;9128;-80
2023/10/26 04:51:59;;;;;;;;;;;10.40;99.90;;;;;;7319535;19;9313;-81
2023/10/26 04:54:30;;;;;;;;;;;10.30;99.90;;;;;;7316256;19;9178;-81
2023/10/26 04:57:00;;;;;;;;;;;10.30;99.90;;;;;;7316136;19;9426;-81
2023/10/26 04:59:29;;;;;;;;;;;10.30;99.90;;;;;;7317665;19;9058;-81
2023/10/26 05:01:58;;;;;;;;;;;10.20;99.90;;;;;;7319326;19;9415;-81
2023/10/26 05:04:27;;;;;;;;;;;10.20;99.90;;;;;;7316922;19;9398;-81
2023/10/26 05:06:56;;;;;;;;;;;10.20;99.90;;;;;;7315166;19;9249;-81
2023/10/26 05:09:25;;;;;;;;;;;10.20;99.90;;;;;;7317093;19;9330;-81
2023/10/26 05:11:56;;;;;;;;;;;10.30;99.90;;;;;;7317301;19;9393;-81
2023/10/26 05:14:25;;;;;;;;;;;10.30;99.90;;;;;;7317020;19;9163;-80
2023/10/26 05:16:54;;;;;;;;;;;10.30;99.90;;;;;;7317002;19;9232;-80
2023/10/26 05:19:23;;;;;;;;;;;10.40;99.90;;;;;;7318239;19;9514;-81
2023/10/26 05:21:52;;;;;;;;;;;10.50;99.90;;;;;;7316840;19;9459;-81
2023/10/26 05:24:21;;;;;;;;;;;10.40;99.90;;;;;;7315393;19;10405;-81
2023/10/26 05:26:50;;;;;;;;;;;10.40;99.90;;;;;;7315957;19;8993;-80
2023/10/26 05:29:21;;;;;;;;;;;10.40;99.90;;;;;;7316012;19;9324;-80
2023/10/26 05:31:50;;;;;;;;;;;10.40;99.90;;;;;;7312512;19;9213;-81
2023/10/26 05:34:19;;;;;;;;;;;10.50;99.90;;;;;;7315201;19;9516;-80
2023/10/26 05:36:48;;;;;;;;;;;10.60;99.90;;;;;;7315392;19;9221;-81
2023/10/26 05:39:17;;;;;;;;;;;10.60;99.90;;;;;;7316937;19;9139;-80
2023/10/26 05:41:46;;;;;;;;;;;10.50;99.90;;;;;;7312987;19;10404;-81
2023/10/26 05:44:20;;;;;;;;;;;10.50;99.90;;;;;;7315482;19;9198;-81
2023/10/26 05:46:46;;;;;;;;;;;10.40;99.90;;;;;;7317509;19;9316;-80
2023/10/26 05:49:16;;;;;;;;;;;10.40;99.90;;;;;;7307055;19;9383;-79
2023/10/26 05:51:44;;;;;;;;;;;10.30;99.90;;;;;;7317467;19;9221;-85
2023/10/26 05:54:13;;;;;;;;;;;10.30;99.90;;;;;;7312857;19;9226;-81
2023/10/26 05:56:42;;;;;;;;;;;10.30;99.90;;;;;;7317861;19;9564;-80
2023/10/26 05:59:12;;;;;;;;;;;10.40;99.90;;;;;;7315724;19;9213;-81
2023/10/26 06:01:43;;;;;;;;;;;10.30;99.90;;;;;;7315424;19;9237;-88
2023/10/26 06:04:12;;;;;;;;;;;10.30;99.90;;;;;;7309515;19;9269;-89
2023/10/26 06:06:43;;;;;;;;;;;10.20;99.90;;;;;;7310541;19;10547;-87
2023/10/26 06:09:12;;;;;;;;;;;10.10;99.90;;;;;;7312568;19;9547;-82
2023/10/26 06:11:41;;;;;;;;;;;10.00;99.90;;;;;;7316369;19;11636;-86
2023/10/26 06:14:11;;;;;;;;;;;10.00;99.90;;;;;;7316335;19;9563;-85
2023/10/26 06:16:43;;;;;;;;;;;9.90;99.90;;;;;;7315059;19;9159;-88
2023/10/26 06:19:12;;;;;;;;;;;10.00;99.90;;;;;;7309273;19;9262;-87
2023/10/26 06:21:41;;;;;;;;;;;9.90;99.90;;;;;;7313188;19;9261;-89
2023/10/26 06:24:10;;;;;;;;;;;9.90;99.90;;;;;;7304021;19;9933;-88
2023/10/26 06:26:39;;;;;;;;;;;9.80;99.90;;;;;;7310974;19;9474;-88
2023/10/26 06:29:08;;;;;;;;;;;9.80;99.90;;;;;;7309573;19;9423;-89
2023/10/26 06:31:37;;;;;;;;;;;9.90;99.90;;;;;;7316699;19;9336;-87
2023/10/26 06:34:09;;;;;;;;;;;9.90;99.90;;;;;;7313257;19;9199;-88
2023/10/26 06:36:38;;;;;;;;;;;9.80;99.90;;;;;;7323012;19;9467;-88
2023/10/26 06:39:07;;;;;;;;;;;9.80;99.90;;;;;;7325373;19;9203;-88
2023/10/26 06:41:36;;;;;;;;;;;9.80;99.90;;;;;;7323218;19;9468;-87
2023/10/26 06:44:05;;;;;;;;;;;9.80;99.90;;;;;;7324256;19;9346;-87
2023/10/26 06:46:34;;;;;;;;;;;9.80;99.90;;;;;;7324831;19;9573;-87
2023/10/26 06:49:03;;;;;;;;;;;9.80;99.90;;;;;;7325774;19;9238;-87
2023/10/26 06:51:34;;;;;;;;;;;9.70;99.90;;;;;;7322889;19;10663;-89
2023/10/26 06:54:03;;;;;;;;;;;9.80;99.90;;;;;;7321235;19;9252;-88
2023/10/26 06:56:32;;;;;;;;;;;9.80;99.90;;;;;;7321441;19;9442;-87
2023/10/26 06:59:01;;;;;;;;;;;9.80;99.90;;;;;;7320768;19;9594;-86
2023/10/26 07:01:33;;;;;;;;;;;9.90;99.90;;;;;;7321666;19;9385;-87
2023/10/26 07:04:02;;;;;;;;;;;9.80;99.90;;;;;;7321383;19;9195;-88
2023/10/26 07:06:34;;;;;;;;;;;9.90;99.90;;;;;;7317983;19;9290;-87
2023/10/26 07:09:04;;;;;;;;;;;9.90;99.90;;;;;;7318400;19;9476;-87
2023/10/26 07:11:33;;;;;;;;;;;9.90;99.90;;;;;;7314683;19;9155;-88
2023/10/26 07:14:02;;;;;;;;;;;9.90;99.90;;;;;;7320278;19;9473;-86
2023/10/26 07:16:32;;;;;;;;;;;9.90;99.90;;;;;;7321911;19;9457;-88
2023/10/26 07:19:01;;;;;;;;;;;9.80;99.90;;;;;;7320734;19;9599;-87
2023/10/26 07:21:33;;;;;;;;;;;9.80;99.90;;;;;;7323420;19;11254;-88
2023/10/26 07:24:05;;;;;;;;;;;9.80;99.90;;;;;;7321835;19;9230;-87
2023/10/26 07:26:34;;;;;;;;;;;9.80;99.90;;;;;;7321571;19;9135;-87
2023/10/26 07:29:03;;;;;;;;;;;9.80;99.90;;;;;;7322597;19;9139;-89
2023/10/26 07:31:32;;;;;;;;;;;9.80;99.90;;;;;;7322834;19;9466;-87
2023/10/26 07:34:01;;;;;;;;;;;9.80;99.90;;;;;;7314372;19;10430;-87
2023/10/26 07:36:30;;;;;;;;;;;9.80;99.90;;;;;;7319165;19;9497;-87
2023/10/26 07:39:01;;;;;;;;;;;9.90;99.90;;;;;;7320361;19;9305;-87
2023/10/26 07:41:32;;;;;;;;;;;9.90;99.90;;;;;;7321473;19;9162;-88
2023/10/26 07:44:01;;;;;;;;;;;9.90;99.90;;;;;;7320463;19;9352;-87
2023/10/26 07:46:30;;;;;;;;;;;10.00;99.90;;;;;;7318192;19;9254;-87
2023/10/26 07:48:59;;;;;;;;;;;10.00;99.90;;;;;;7320574;19;9349;-87
2023/10/26 07:51:28;;;;;;;;;;;10.00;99.90;;;;;;7317661;19;10945;-87
2023/10/26 07:53:57;;;;;;;;;;;10.10;99.90;;;;;;7321866;19;9496;-88
2023/10/26 07:56:26;;;;;;;;;;;10.10;99.90;;;;;;7319755;19;9290;-87
2023/10/26 07:58:57;;;;;;;;;;;10.00;99.90;;;;;;7321321;19;9238;-87
2023/10/26 08:01:26;;;;;;;;;;;10.00;99.90;;;;;;7317199;19;9187;-87
2023/10/26 08:03:56;;;;;;;;;;;10.00;99.90;;;;;;7321023;19;9247;-87
2023/10/26 08:06:25;;;;;;;;;;;10.10;99.90;;;;;;7316963;19;9320;-88
2023/10/26 08:08:54;;;;;;;;;;;10.10;99.90;;;;;;7318540;19;9532;-87
2023/10/26 08:11:23;;;;;;;;;;;10.10;99.90;;;;;;7318514;19;9681;-86
2023/10/26 08:13:53;;;;;;;;;;;10.10;99.90;;;;;;7321176;19;9131;-87
2023/10/26 08:16:25;;;;;;;;;;;10.00;99.90;;;;;;7316355;19;9524;-87
2023/10/26 08:18:54;;;;;;;;;;;10.00;99.90;;;;;;7319205;19;9749;-87
2023/10/26 08:21:23;;;;;;;;;;;10.10;99.90;;;;;;7318475;19;9304;-88
2023/10/26 08:23:52;;;;;;;;;;;10.10;99.90;;;;;;7318250;19;9225;-87
2023/10/26 08:26:21;;;;;;;;;;;10.10;99.90;;;;;;7319334;19;9258;-88
2023/10/26 08:28:50;;;;;;;;;;;10.20;99.90;;;;;;7320391;19;9194;-88
2023/10/26 08:31:19;;;;;;;;;;;10.40;99.90;;;;;;7319902;19;10379;-88
2023/10/26 08:33:50;;;;;;;;;;;10.40;99.90;;;;;;7319401;19;9170;-87
2023/10/26 08:36:19;;;;;;;;;;;10.30;99.90;;;;;;7313240;19;10703;-88
2023/10/26 08:38:49;;;;;;;;;;;10.40;99.90;;;;;;7318721;19;9222;-87
2023/10/26 08:41:18;;;;;;;;;;;10.40;99.90;;;;;;7320748;19;9322;-88
2023/10/26 08:43:46;;;;;;;;;;;10.40;99.90;;;;;;7319462;19;11181;-88
2023/10/26 08:46:20;;;;;;;;;;;10.40;99.90;;;;;;7318978;19;9332;-87
2023/10/26 08:48:58;;;;;;;;;;;10.40;99.90;;;;;;7319954;19;9348;-88
2023/10/26 08:51:29;;;;;;;;;;;10.40;99.90;;;;;;7320086;19;9304;-88
2023/10/26 08:53:59;;;;;;;;;;;10.30;99.90;;;;;;7328917;19;9194;-86
2023/10/26 08:56:28;;;;;;;;;;;10.30;99.90;;;;;;7320274;19;9200;-87
2023/10/26 08:59:02;;;;;;;;;;;10.30;99.90;;;;;;7317361;19;9264;-87
2023/10/26 09:01:31;;;;;;;;;;;10.40;99.90;;;;;;7320787;19;9301;-87
2023/10/26 09:04:10;;;;;;;;;;;10.40;99.90;;;;;;7318440;19;10788;-87
2023/10/26 09:06:45;;;;;;;;;;;10.40;99.90;;;;;;7317107;19;9166;-88
2023/10/26 09:09:15;;;;;;;;;;;10.40;99.90;;;;;;7315093;19;9257;-87
2023/10/26 09:11:44;;;;;;;;;;;10.40;99.90;;;;;;7318352;19;9588;-87
2023/10/26 09:14:17;;;;;;;;;;;10.40;99.90;;;;;;7317235;19;9498;-86
2023/10/26 09:16:47;;;;;;;;;;;10.40;99.90;;;;;;7317658;19;9267;-87
2023/10/26 09:19:21;;;;;;;;;;;10.50;99.90;;;;;;7316939;19;9471;-87
2023/10/26 09:21:52;;;;;;;;;;;10.50;99.90;;;;;;7313257;19;9272;-87
2023/10/26 09:24:24;;;;;;;;;;;10.40;99.90;;;;;;7315594;19;9273;-87
2023/10/26 09:26:55;;;;;;;;;;;10.50;99.90;;;;;;7317882;19;9471;-87
2023/10/26 09:29:24;;;;;;;;;;;10.50;99.90;;;;;;7315930;19;9244;-87
2023/10/26 09:31:55;;;;;;;;;;;10.40;99.90;;;;;;7309551;19;10276;-87
2023/10/26 09:34:29;;;;;;;;;;;10.40;99.90;;;;;;7311941;19;9271;-86
2023/10/26 09:37:02;;;;;;;;;;;10.40;99.90;;;;;;7317292;19;9222;-87
2023/10/26 09:39:33;;;;;;;;;;;10.40;99.90;;;;;;7315827;19;9383;-85
2023/10/26 09:42:03;;;;;;;;;;;10.40;99.90;;;;;;7318229;19;9626;-86
2023/10/26 09:44:32;;;;;;;;;;;10.40;99.90;;;;;;7317461;19;9337;-86
2023/10/26 09:47:02;;;;;;;;;;;10.40;99.90;;;;;;7317200;19;9157;-87
2023/10/26 09:49:33;;;;;;;;;;;10.50;99.90;;;;;;7315831;19;10981;-87
2023/10/26 09:52:02;;;;;;;;;;;10.60;99.90;;;;;;7315301;19;9599;-87
2023/10/26 09:54:36;;;;;;;;;;;10.60;99.90;;;;;;7316358;19;9188;-86
2023/10/26 09:57:13;;;;;;;;;;;10.70;99.90;;;;;;7315672;19;9171;-86
2023/10/26 09:59:43;;;;;;;;;;;10.60;99.90;;;;;;7307700;19;9279;-86
2023/10/26 10:02:16;;;;;;;;;;;10.70;99.90;;;;;;7313712;19;9448;-86
2023/10/26 10:04:50;;;;;;;;;;;10.70;99.90;;;;;;7315052;19;9617;-86
2023/10/26 10:07:20;;;;;;;;;;;10.60;99.90;;;;;;7317902;19;9738;-85
2023/10/26 10:10:09;;;;;;;;;;;10.60;99.90;;;;;;7314550;19;9473;-87
2023/10/26 10:12:40;;;;;;;;;;;10.60;99.90;;;;;;7320974;19;9164;-80
2023/10/26 10:15:11;;;;;;;;;;;10.60;99.90;;;;;;7319023;19;9284;-79
2023/10/26 10:18:05;;;;;;;;;;;10.60;99.90;;;;;;7319806;19;10430;-79
2023/10/26 10:20:38;;;;;;;;;;;10.60;99.90;;;;;;7317843;19;9408;-80
2023/10/26 10:23:07;;;;;;;;;;;10.70;99.90;;;;;;7321761;19;9548;-79
2023/10/26 10:26:01;;;;;;;;;;;10.70;99.90;;;;;;7316601;19;9306;-80
2023/10/26 10:28:51;;;;;;;;;;;10.80;99.90;;;;;;7320640;19;9554;-82
2023/10/26 10:31:42;;;;;;;;;;;10.70;99.90;;;;;;7322460;19;9501;-83
2023/10/26 10:34:12;;;;;;;;;;;10.80;99.90;;;;;;7316756;19;9375;-80
2023/10/26 10:37:12;;;;;;;;;;;10.70;99.90;;;;;;7318338;19;9391;-80
2023/10/26 10:40:17;;;;;;;;;;;10.70;99.90;;;;;;7323035;19;9265;-80
2023/10/26 10:42:50;;;;;;;;;;;10.70;99.90;;;;;;7321990;19;11184;-79
2023/10/26 10:45:20;;;;;;;;;;;10.80;99.90;;;;;;7321850;19;9671;-79
2023/10/26 10:47:49;;;;;;;;;;;10.70;99.90;;;;;;7320823;19;10335;-79
2023/10/26 10:50:23;;;;;;;;;;;10.80;99.90;;;;;;7322583;19;9225;-79
2023/10/26 10:52:54;;;;;;;;;;;10.80;99.90;;;;;;7320228;19;9201;-79
2023/10/26 10:55:27;;;;;;;;;;;10.80;99.90;;;;;;7322889;19;9705;-80
2023/10/26 10:58:00;;;;;;;;;;;10.90;99.90;;;;;;7314329;19;9913;-81
2023/10/26 11:00:45;;;;;;;;;;;11.10;99.90;;;;;;7318398;19;9810;-81
2023/10/26 11:03:20;;;;;;;;;;;11.20;99.90;;;;;;7321430;19;9295;-80
2023/10/26 11:05:50;;;;;;;;;;;11.30;99.90;;;;;;7321148;19;9299;-80
2023/10/26 11:08:19;;;;;;;;;;;11.30;99.90;;;;;;7321595;19;9633;-80
2023/10/26 11:10:54;;;;;;;;;;;11.40;99.90;;;;;;7320927;19;9183;-80
2023/10/26 11:13:24;;;;;;;;;;;11.40;99.90;;;;;;7321013;19;9257;-80
2023/10/26 11:15:53;;;;;;;;;;;11.50;99.90;;;;;;7320333;19;9268;-80
2023/10/26 11:18:22;;;;;;;;;;;11.40;99.90;;;;;;7321780;19;9168;-80
2023/10/26 11:20:51;;;;;;;;;;;11.40;99.90;;;;;;7319737;19;9311;-80
2023/10/26 11:23:25;;;;;;;;;;;11.40;99.90;;;;;;7318403;19;11245;-80
2023/10/26 11:25:57;;;;;;;;;;;11.40;99.90;;;;;;7320791;19;9222;-81
2023/10/26 11:28:38;;;;;;;;;;;11.50;99.90;;;;;;7322720;19;9131;-80
2023/10/26 11:31:07;;;;;;;;;;;11.50;99.90;;;;;;7319492;19;9306;-81
2023/10/26 11:33:39;;;;;;;;;;;11.50;99.90;;;;;;7320311;19;9246;-80
2023/10/26 11:36:11;;;;;;;;;;;11.60;99.90;;;;;;7319883;19;9102;-81
2023/10/26 11:38:49;;;;;;;;;;;11.60;99.90;;;;;;7319434;19;9494;-80
2023/10/26 11:41:30;;;;;;;;;;;11.60;99.90;;;;;;7320680;19;9209;-80
2023/10/26 11:44:00;;;;;;;;;;;11.70;99.90;;;;;;7319392;19;9265;-80
2023/10/26 11:46:37;;;;;;;;;;;11.70;99.90;;;;;;7318606;19;9297;-80
2023/10/26 11:49:07;;;;;;;;;;;11.80;99.90;;;;;;7321869;19;9292;-81
2023/10/26 11:51:37;;;;;;;;;;;11.90;99.90;;;;;;7316544;19;9290;-80
2023/10/26 11:54:14;;;;;;;;;;;12.00;99.90;;;;;;7317466;19;9164;-80
2023/10/26 11:56:45;;;;;;;;;;;11.90;99.90;;;;;;7319760;19;10383;-81
2023/10/26 11:59:15;;;;;;;;;;;12.00;99.90;;;;;;7319079;19;9517;-81
2023/10/26 12:01:43;;;;;;;;;;;12.10;99.90;;;;;;7319250;19;9500;-81
2023/10/26 12:04:13;;;;;;;;;;;12.20;99.90;;;;;;7320656;19;9182;-80
2023/10/26 12:06:43;;;;;;;;;;;12.10;99.90;;;;;;7315263;19;9340;-81
2023/10/26 12:09:13;;;;;;;;;;;12.20;99.90;;;;;;7318402;19;9452;-81
2023/10/26 12:11:46;;;;;;;;;;;12.20;99.90;;;;;;7316759;19;9301;-80
2023/10/26 12:14:15;;;;;;;;;;;12.30;99.90;;;;;;7315494;19;9237;-81
2023/10/26 12:16:44;;;;;;;;;;;12.50;99.90;;;;;;7317798;19;9320;-80
2023/10/26 12:19:13;;;;;;;;;;;12.70;99.90;;;;;;7320036;19;9575;-80
2023/10/26 12:21:42;;;;;;;;;;;12.90;99.90;;;;;;7319881;19;9451;-80
2023/10/26 12:24:11;;;;;;;;;;;13.00;99.90;;;;;;7319079;19;9455;-80
2023/10/26 12:26:40;;;;;;;;;;;13.00;99.90;;;;;;7317655;19;9245;-80
2023/10/26 12:29:11;;;;;;;;;;;12.80;99.90;;;;;;7318716;19;9281;-80
2023/10/26 12:31:40;;;;;;;;;;;12.80;99.90;;;;;;7318543;19;9510;-80
2023/10/26 12:34:09;;;;;;;;;;;12.70;99.90;;;;;;7313781;19;9681;-80
2023/10/26 12:36:38;;;;;;;;;;;12.50;99.90;;;;;;7317877;19;9259;-80
2023/10/26 12:39:07;;;;;;;;;;;12.30;99.90;;;;;;7317032;19;9270;-80
2023/10/26 12:41:36;;;;;;;;;;;12.30;99.90;;;;;;7315905;19;9631;-81
2023/10/26 12:44:04;;;;;;;;;;;12.20;99.90;;;;;;7315516;19;9400;-80
2023/10/26 12:46:36;;;;;;;;;;;12.10;99.90;;;;;;7320092;19;9211;-80
2023/10/26 12:49:05;;;;;;;;;;;12.10;99.90;;;;;;7319417;19;9326;-80
2023/10/26 12:51:34;;;;;;;;;;;12.10;99.90;;;;;;7317434;19;9321;-80
2023/10/26 12:54:03;;;;;;;;;;;12.00;99.90;;;;;;7319949;19;9278;-80
2023/10/26 12:56:32;;;;;;;;;;;12.00;99.90;;;;;;7317194;19;9253;-80
2023/10/26 12:59:01;;;;;;;;;;;12.00;99.90;;;;;;7317768;19;9226;-80
2023/10/26 13:01:30;;;;;;;;;;;12.10;99.90;;;;;;7315480;19;9237;-80
2023/10/26 13:04:01;;;;;;;;;;;12.10;99.90;;;;;;7317954;19;9625;-80
2023/10/26 13:06:30;;;;;;;;;;;12.10;99.90;;;;;;7315786;19;9219;-80
2023/10/26 13:09:00;;;;;;;;;;;12.20;99.90;;;;;;7315366;19;9346;-80
2023/10/26 13:11:28;;;;;;;;;;;12.10;99.90;;;;;;7315590;19;9245;-80
2023/10/26 13:13:57;;;;;;;;;;;12.10;99.90;;;;;;7317103;19;9723;-80
2023/10/26 13:16:26;;;;;;;;;;;12.10;99.90;;;;;;7310173;19;10664;-80
2023/10/26 13:18:55;;;;;;;;;;;12.00;99.90;;;;;;7316467;19;9550;-80
2023/10/26 13:21:27;;;;;;;;;;;12.00;99.90;;;;;;7317682;19;9491;-80
2023/10/26 13:23:56;;;;;;;;;;;11.90;99.90;;;;;;7314127;19;10356;-80
2023/10/26 13:26:25;;;;;;;;;;;11.90;99.90;;;;;;7316740;19;9470;-80
2023/10/26 13:28:53;;;;;;;;;;;11.80;99.90;;;;;;7315637;19;9626;-80
2023/10/26 13:31:22;;;;;;;;;;;11.80;99.90;;;;;;7315538;19;10367;-80
2023/10/26 13:33:51;;;;;;;;;;;11.80;99.90;;;;;;7316623;19;9696;-80
2023/10/26 13:36:20;;;;;;;;;;;11.80;99.90;;;;;;7315893;19;9192;-80
2023/10/26 13:38:52;;;;;;;;;;;11.80;99.90;;;;;;7314464;19;9257;-80
2023/10/26 13:41:23;;;;;;;;;;;11.80;99.90;;;;;;7314924;19;9146;-80
2023/10/26 13:43:53;;;;;;;;;;;11.80;99.90;;;;;;7317272;19;9708;-80
2023/10/26 13:46:22;;;;;;;;;;;11.80;99.90;;;;;;7313961;19;9483;-80
2023/10/26 13:48:51;;;;;;;;;;;11.80;99.90;;;;;;7315694;19;9374;-80
2023/10/26 13:51:20;;;;;;;;;;;11.90;99.90;;;;;;7314141;19;9328;-80
2023/10/26 13:53:52;;;;;;;;;;;11.90;99.90;;;;;;7311949;19;9277;-80
2023/10/26 13:56:20;;;;;;;;;;;11.90;99.90;;;;;;7314517;19;9451;-80
2023/10/26 13:58:50;;;;;;;;;;;12.00;99.90;;;;;;7315718;19;9707;-80
2023/10/26 14:01:19;;;;;;;;;;;12.00;99.90;;;;;;7314042;19;9294;-80
2023/10/26 14:03:48;;;;;;;;;;;12.00;99.90;;;;;;7313949;19;9666;-80
2023/10/26 14:06:17;;;;;;;;;;;12.00;99.90;;;;;;7312617;19;9115;-80
2023/10/26 14:08:46;;;;;;;;;;;12.00;99.90;;;;;;7312141;19;9272;-80
2023/10/26 14:11:19;;;;;;;;;;;12.10;99.90;;;;;;7314638;19;9498;-80
2023/10/26 14:13:48;;;;;;;;;;;12.10;99.90;;;;;;7311749;19;9242;-80
2023/10/26 14:16:20;;;;;;;;;;;12.20;99.90;;;;;;7315472;19;9534;-80
2023/10/26 14:18:49;;;;;;;;;;;12.20;99.90;;;;;;7312738;19;9528;-80
2023/10/26 14:21:18;;;;;;;;;;;12.30;99.90;;;;;;7314908;19;9245;-80
2023/10/26 14:23:47;;;;;;;;;;;12.30;99.90;;;;;;7315738;19;9178;-80
2023/10/26 14:26:19;;;;;;;;;;;12.30;99.90;;;;;;7315016;19;9171;-80
2023/10/26 14:28:48;;;;;;;;;;;12.30;99.90;;;;;;7311230;19;9498;-80
2023/10/26 14:31:17;;;;;;;;;;;12.20;99.90;;;;;;7310829;19;9288;-80
2023/10/26 14:33:46;;;;;;;;;;;12.20;99.90;;;;;;7312137;19;9359;-80
2023/10/26 14:36:15;;;;;;;;;;;12.20;99.90;;;;;;7314670;19;9246;-80
2023/10/26 14:38:44;;;;;;;;;;;12.20;99.90;;;;;;7313505;19;9248;-81
2023/10/26 14:41:13;;;;;;;;;;;12.10;99.90;;;;;;7313758;19;9200;-81
2023/10/26 14:43:44;;;;;;;;;;;12.10;99.90;;;;;;7311448;19;9138;-81
2023/10/26 14:46:13;;;;;;;;;;;12.00;99.90;;;;;;7314339;19;9471;-81
2023/10/26 14:48:42;;;;;;;;;;;12.00;99.90;;;;;;7312607;19;9395;-80